San Juan Bautista, California
Current Conditions -  °F | °C
As of 4:10 AM on Monday 26 Jan 2015 (Local Time) from KCVH Reporting Station
Clear Clear  
Wind Chill: 39°   Ceiling: Unl
Heat Index: 39°   Visibility: 10mi
Dew Point: 36°   Wind: 3mph
Humidity: 87%   Direction: 110°ESE
Pressure: 30.05"   Gusts: NA
Location:  36.85°N, 121.54°W
Report Text: KCVH 261210Z AUTO 11003KT 10SM CLR 04/02 A3005 RMK AO1
Loading
Personal Weather Stations






























Interactive Weather Map New forecast layout! Learn more

10-Day Weather Forecast

Advertisements
Track Severe Weather on mobile